Time;durP1;ratioP1;P1;durP2;ratioP2;P2;SDS_P1;SDS_P2;PMS_P1;PMS_P2;Temp;Humidity;BMP_temperature;BMP_pressure;BME280_temperature;BME280_humidity;BME280_pressure;Samples;Min_cycle;Max_cycle;Signal;HPM_P1;HPM_P2
2021/12/30 00:00:30;192749.00;0.64;333.44;24529.00;0.08;43.11;;;;;15.10;9.00;;;;;;2272701;61;1057;-89
2021/12/30 00:02:57;41840.00;0.14;73.07;0.00;0.00;0.62;;;;;14.80;10.90;;;;;;2272698;61;1090;-89
2021/12/30 00:05:24;335214.00;1.12;578.45;11978.00;0.04;21.38;;;;;14.70;12.50;;;;;;2272686;61;1402;-88
2021/12/30 00:07:51;39220.00;0.13;68.54;0.00;0.00;0.62;;;;;14.80;10.00;;;;;;2272671;61;1918;-89
2021/12/30 00:10:21;210676.00;0.70;364.30;64273.00;0.21;111.86;;;;;14.80;11.00;;;;;;2272686;61;1094;-89
2021/12/30 00:12:50;9718.00;0.03;17.46;0.00;0.00;0.62;;;;;14.60;12.30;;;;;;2272696;61;930;-89
2021/12/30 00:15:17;235919.00;0.79;407.73;38906.00;0.13;68.00;;;;;14.70;13.50;;;;;;2272642;61;1385;-89
2021/12/30 00:17:44;54176.00;0.18;94.41;0.00;0.00;0.62;;;;;14.90;9.90;;;;;;2272627;61;1759;-89
2021/12/30 00:20:12;632957.00;2.11;1091.16;37846.00;0.13;66.16;;;;;15.20;9.80;;;;;;2272680;61;1099;-87
2021/12/30 00:22:41;1684825.00;5.62;2995.98;138229.00;0.46;239.52;;;;;15.20;9.80;;;;;;2272698;61;1036;-89
2021/12/30 00:25:09;1093131.00;3.64;1898.14;117441.00;0.39;203.67;;;;;15.10;9.10;;;;;;2272615;61;1357;-88
2021/12/30 00:27:38;968617.00;3.23;1676.97;137415.00;0.46;238.11;;;;;15.10;8.30;;;;;;2272667;61;2014;-89
2021/12/30 00:30:08;1278385.00;4.26;2232.60;74546.00;0.25;129.62;;;;;15.10;8.60;;;;;;2272694;61;918;-89
2021/12/30 00:32:35;583742.00;1.95;1006.16;83726.00;0.28;145.47;;;;;15.20;9.40;;;;;;2272682;61;1006;-89
2021/12/30 00:35:02;322058.00;1.07;555.84;88452.00;0.29;153.63;;;;;15.50;8.60;;;;;;2272610;61;1359;-88
2021/12/30 00:37:29;186537.00;0.62;322.75;64405.00;0.21;112.09;;;;;15.40;7.90;;;;;;2272630;61;962;-88
2021/12/30 00:39:56;41137.00;0.14;71.86;0.00;0.00;0.62;;;;;15.20;9.20;;;;;;2272334;61;1038;-88
2021/12/30 00:42:23;36041.00;0.12;63.04;0.00;0.00;0.62;;;;;15.30;7.40;;;;;;2272621;61;1073;-88
2021/12/30 00:44:51;89030.00;0.30;154.63;0.00;0.00;0.62;;;;;15.50;7.40;;;;;;2272622;61;1390;-89
2021/12/30 00:47:18;0.00;0.00;0.62;0.00;0.00;0.62;;;;;15.90;4.90;;;;;;2272970;61;1923;-89
2021/12/30 00:49:45;29797.00;0.10;52.23;0.00;0.00;0.62;;;;;16.00;3.70;;;;;;2273327;61;1102;-88
2021/12/30 00:52:12;0.00;0.00;0.62;0.00;0.00;0.62;;;;;16.00;4.00;;;;;;2273294;61;1123;-89
2021/12/30 00:54:39;44214.00;0.15;77.18;0.00;0.00;0.62;;;;;15.90;5.00;;;;;;2273291;61;1395;-90
2021/12/30 00:57:06;71008.00;0.24;123.50;0.00;0.00;0.62;;;;;15.50;5.70;;;;;;2273289;61;1137;-89
2021/12/30 00:59:33;130620.00;0.44;226.40;0.00;0.00;0.62;;;;;15.60;5.90;;;;;;2273275;61;908;-88
2021/12/30 01:02:01;46435.00;0.15;81.02;0.00;0.00;0.62;;;;;15.80;4.40;;;;;;2273258;61;1122;-89
2021/12/30 01:04:28;31190.00;0.10;54.64;0.00;0.00;0.62;;;;;16.00;2.60;;;;;;2273228;61;1392;-88
2021/12/30 01:06:55;36677.00;0.12;64.14;0.00;0.00;0.62;;;;;16.00;3.20;;;;;;2273201;61;1909;-88
2021/12/30 01:09:22;891156.00;2.97;1540.59;108506.00;0.36;188.25;;;;;16.20;1.40;;;;;;2273260;61;998;-87
2021/12/30 01:11:49;903085.00;3.01;1561.54;82015.00;0.27;142.52;;;;;16.20;2.30;;;;;;2273204;61;1125;-87
2021/12/30 01:14:19;1039448.00;3.46;1802.47;145878.00;0.49;252.70;;;;;16.20;2.30;;;;;;2273176;61;1397;-86
2021/12/30 01:16:52;829780.00;2.77;1433.11;115149.00;0.38;199.71;;;;;16.00;2.80;;;;;;2268707;61;971;-86
2021/12/30 01:19:42;945451.00;3.15;1636.09;132485.00;0.44;229.61;;;;;15.60;3.40;;;;;;2260595;61;948;-88
2021/12/30 01:22:11;398663.00;1.33;687.51;69404.00;0.23;120.73;;;;;15.40;3.80;;;;;;2260551;61;1060;-87
2021/12/30 01:24:39;1799130.00;6.00;3219.70;450672.00;1.50;776.94;;;;;15.20;3.60;;;;;;2260634;61;1476;-87
2021/12/30 01:27:06;1378124.00;4.59;2415.81;288798.00;0.96;498.66;;;;;15.10;6.50;;;;;;2260540;61;2003;-86
2021/12/30 01:29:33;902717.00;3.01;1560.89;161069.00;0.54;278.88;;;;;15.00;6.70;;;;;;2259402;61;1002;-87
2021/12/30 01:32:00;1360306.00;4.53;2382.91;181195.00;0.60;313.55;;;;;15.10;6.60;;;;;;2250712;61;1025;-87
2021/12/30 01:34:28;804680.00;2.68;1389.29;173440.00;0.58;300.19;;;;;15.30;4.60;;;;;;2256595;61;1435;-87
2021/12/30 01:36:59;1078451.00;3.59;1871.93;182472.00;0.61;315.75;;;;;15.60;3.10;;;;;;2261702;61;985;-88
2021/12/30 01:39:26;1301853.00;4.34;2275.50;120610.00;0.40;209.13;;;;;15.60;3.90;;;;;;2264440;61;1022;-86
2021/12/30 01:41:53;961705.00;3.21;1664.76;188917.00;0.63;326.84;;;;;15.70;3.30;;;;;;2257854;61;975;-89
2021/12/30 01:44:20;863293.00;2.88;1491.74;187253.00;0.62;323.98;;;;;15.80;3.00;;;;;;2256437;61;1286;-88
2021/12/30 02:18:52;1809033.00;6.03;3239.30;183031.00;0.61;316.71;;;;;15.40;4.50;;;;;;2517476;55;3590;31
2021/12/30 04:51:46;119068840.00;396.90;68381624.00;110909.00;0.37;192.40;;;;;17.00;1.00;;;;;;2274313;61;1291;-88
2021/12/30 05:18:56;713489.00;2.38;1230.64;193707.00;0.65;335.09;;;;;16.40;1.00;;;;;;2517766;39;3485;31
2021/12/30 05:26:25;949695.00;3.17;1643.57;124132.00;0.41;215.21;;;;;16.30;1.00;;;;;;2266385;61;1309;-89
2021/12/30 05:31:19;476522.00;1.59;821.41;103334.00;0.34;179.33;;;;;15.90;1.90;;;;;;2266021;61;1300;-89
2021/12/30 07:22:14;225759.00;0.75;390.25;3064.00;0.01;5.93;;;;;15.70;3.50;;;;;;2515485;55;3613;31
2021/12/30 07:52:55;282364.00;0.94;487.60;0.00;0.00;0.62;;;;;16.30;4.20;;;;;;2278503;61;803;-89
2021/12/30 07:58:44;321786.00;1.07;555.37;68949.00;0.23;119.94;;;;;15.80;6.30;;;;;;2272668;61;699;-91
2021/12/30 08:04:34;172511632.00;575.04;208205104.00;0.00;0.00;0.62;;;;;15.70;6.80;;;;;;2272668;61;757;-89
2021/12/30 08:07:03;342011.00;1.14;590.13;0.00;0.00;0.62;;;;;15.60;7.90;;;;;;2272538;61;1993;-90
2021/12/30 08:09:32;346616.00;1.16;598.04;0.00;0.00;0.62;;;;;15.80;7.50;;;;;;2272582;61;992;-90
2021/12/30 08:11:59;411229.00;1.37;709.11;0.00;0.00;0.62;;;;;15.90;6.70;;;;;;2272590;61;1085;-88
2021/12/30 08:14:26;343476.00;1.14;592.65;0.00;0.00;0.62;;;;;16.10;5.00;;;;;;2267975;61;967;-89
2021/12/30 08:16:55;549756.00;1.83;947.54;0.00;0.00;0.62;;;;;16.50;3.70;;;;;;2267968;61;1251;-90
2021/12/30 08:19:22;436561.00;1.46;752.67;0.00;0.00;0.62;;;;;16.50;3.60;;;;;;2267853;61;1154;-89
2021/12/30 08:21:49;272829.00;0.91;471.21;0.00;0.00;0.62;;;;;16.60;3.40;;;;;;2266881;61;1142;-88
2021/12/30 08:24:16;498860.00;1.66;859.86;0.00;0.00;0.62;;;;;16.90;2.40;;;;;;2267974;61;1041;-88
2021/12/30 08:26:44;356337.00;1.19;614.75;0.00;0.00;0.62;;;;;16.80;2.10;;;;;;2267914;61;1510;-90
2021/12/30 08:29:11;587228.00;1.96;1012.17;0.00;0.00;0.62;;;;;16.60;2.60;;;;;;2267922;61;2030;-90
2021/12/30 08:31:38;367098.00;1.22;633.25;0.00;0.00;0.62;;;;;16.60;3.60;;;;;;2268619;61;1018;-92
2021/12/30 08:34:06;420306.00;1.40;724.72;6971.00;0.02;12.70;;;;;17.00;1.60;;;;;;2272469;61;913;-88
2021/12/30 08:36:34;501288.00;1.67;864.04;0.00;0.00;0.62;;;;;17.10;1.50;;;;;;2272401;61;1357;-88
2021/12/30 08:39:01;621034.00;2.07;1070.55;0.00;0.00;0.62;;;;;17.20;1.00;;;;;;2272414;61;1063;-90
2021/12/30 08:41:28;574368.00;1.91;989.98;11823.00;0.04;21.11;;;;;17.10;1.00;;;;;;2272441;61;1103;-88
2021/12/30 08:43:56;519833.00;1.73;895.98;0.00;0.00;0.62;;;;;17.20;1.00;;;;;;2272504;61;1011;-89
2021/12/30 08:46:23;388369.00;1.29;669.81;0.00;0.00;0.62;;;;;17.20;1.00;;;;;;2272344;61;1591;-89
2021/12/30 08:48:50;306645.00;1.02;529.34;0.00;0.00;0.62;;;;;17.10;1.00;;;;;;2271708;61;1978;-87
2021/12/30 08:51:17;416418.00;1.39;718.03;0.00;0.00;0.62;;;;;17.00;1.20;;;;;;2259005;61;1047;-87
2021/12/30 08:53:44;531193.00;1.77;915.55;0.00;0.00;0.62;;;;;16.90;1.30;;;;;;2259689;61;1020;-89
2021/12/30 08:56:12;371021.00;1.24;639.99;0.00;0.00;0.62;;;;;17.00;1.00;;;;;;2259883;61;1344;-89
2021/12/30 08:58:40;334059.00;1.11;576.46;0.00;0.00;0.62;;;;;16.90;1.00;;;;;;2259888;61;1027;-90
2021/12/30 09:01:09;277632.00;0.93;479.47;0.00;0.00;0.62;;;;;16.80;1.60;;;;;;2259875;61;1026;-89
2021/12/30 09:03:35;416375.00;1.39;717.96;28553.00;0.10;50.08;;;;;16.90;1.00;;;;;;2256504;61;995;-91
2021/12/30 09:06:02;278936.00;0.93;481.71;0.00;0.00;0.62;;;;;16.90;1.00;;;;;;2259873;61;1054;-90
2021/12/30 09:08:30;318273.00;1.06;549.33;0.00;0.00;0.62;;;;;16.90;1.00;;;;;;2260536;61;2000;-88
2021/12/30 09:10:58;370208.00;1.23;638.59;0.00;0.00;0.62;;;;;16.90;1.40;;;;;;2265702;61;1015;-89
2021/12/30 09:13:25;493566.00;1.65;850.75;0.00;0.00;0.62;;;;;16.70;1.70;;;;;;2264374;61;1071;-89
2021/12/30 09:15:55;323204.00;1.08;557.81;0.00;0.00;0.62;;;;;16.70;1.30;;;;;;2252486;61;982;-90
2021/12/30 09:18:24;577467.00;1.92;995.33;0.00;0.00;0.62;;;;;16.70;2.20;;;;;;2252532;61;1284;-91
2021/12/30 09:20:52;627067.00;2.09;1080.98;25528.00;0.09;44.84;;;;;16.50;2.80;;;;;;2248447;61;987;-89
2021/12/30 09:25:56;599315.00;2.00;1033.04;0.00;0.00;0.62;;;;;16.80;2.50;;;;;;2278888;61;1276;-90
2021/12/30 09:28:24;332392.00;1.11;573.60;0.00;0.00;0.62;;;;;16.90;1.80;;;;;;2277017;61;1919;-90
2021/12/30 09:30:52;310378.00;1.03;535.76;0.00;0.00;0.62;;;;;16.80;1.80;;;;;;2270003;61;979;-92
2021/12/30 09:33:23;493294.00;1.64;850.28;0.00;0.00;0.62;;;;;16.70;2.90;;;;;;2277092;61;1005;-90
2021/12/30 09:38:21;566829.00;1.89;976.98;55519.00;0.19;96.73;;;;;16.90;1.90;;;;;;2278830;61;1378;-90
2021/12/30 09:43:20;205514.00;0.69;355.41;0.00;0.00;0.62;;;;;17.00;3.00;;;;;;2278572;61;1363;-88
2021/12/30 09:45:47;152728.00;0.51;264.51;0.00;0.00;0.62;;;;;17.10;2.50;;;;;;2276959;61;1008;-88
2021/12/30 09:48:16;144524.00;0.48;250.37;0.00;0.00;0.62;;;;;17.30;2.30;;;;;;2276946;61;1916;-87
2021/12/30 09:50:45;174942.00;0.58;302.78;0.00;0.00;0.62;;;;;17.10;1.90;;;;;;2268330;61;990;-89
2021/12/30 09:53:12;156338.00;0.52;270.73;0.00;0.00;0.62;;;;;17.10;2.20;;;;;;2264293;61;1049;-89
2021/12/30 09:55:41;173806.00;0.58;300.82;0.00;0.00;0.62;;;;;17.10;3.00;;;;;;2264413;61;1041;-89
2021/12/30 09:58:09;182394.00;0.61;315.61;0.00;0.00;0.62;;;;;16.90;3.60;;;;;;2264149;61;1309;-89
2021/12/30 10:00:36;314553.00;1.05;542.94;0.00;0.00;0.62;;;;;17.00;3.50;;;;;;2264289;61;1131;-91
2021/12/30 10:03:05;152599.00;0.51;264.29;0.00;0.00;0.62;;;;;17.30;3.30;;;;;;2260901;61;1042;-91
2021/12/30 10:05:36;159054.00;0.53;275.41;0.00;0.00;0.62;;;;;17.60;1.90;;;;;;2260904;61;987;-89
2021/12/30 10:11:27;72974.00;0.24;126.90;0.00;0.00;0.62;;;;;18.20;1.00;;;;;;2260166;61;1131;-90
2021/12/30 10:13:56;155318.00;0.52;268.97;0.00;0.00;0.62;;;;;18.20;1.00;;;;;;2260172;61;1005;-89
2021/12/30 10:16:24;168681.00;0.56;291.99;0.00;0.00;0.62;;;;;18.10;1.00;;;;;;2262528;61;1261;-90
2021/12/30 10:18:55;102914.00;0.34;178.60;0.00;0.00;0.62;;;;;18.00;1.00;;;;;;2260705;61;958;-90
2021/12/30 10:21:25;749324.00;2.50;1292.88;0.00;0.00;0.62;;;;;18.10;1.00;;;;;;2263964;61;926;-91
2021/12/30 10:23:55;299118.00;1.00;516.40;0.00;0.00;0.62;;;;;18.10;1.00;;;;;;2260083;61;1042;-90
2021/12/30 10:26:22;309567.00;1.03;534.37;0.00;0.00;0.62;;;;;18.10;1.00;;;;;;2262266;61;1459;-90
2021/12/30 10:28:53;341365.00;1.14;589.02;0.00;0.00;0.62;;;;;18.20;1.00;;;;;;2272194;61;1977;-89
2021/12/30 10:31:23;173712.00;0.58;300.66;0.00;0.00;0.62;;;;;18.00;1.00;;;;;;2263996;61;1001;-88
2021/12/30 10:33:56;203413.00;0.68;351.80;0.00;0.00;0.62;;;;;17.60;1.70;;;;;;2256078;61;1061;-90
2021/12/30 10:36:25;209086.00;0.70;361.56;0.00;0.00;0.62;;;;;17.50;1.40;;;;;;2251994;61;1249;-90
2021/12/30 10:38:53;253921.00;0.85;438.69;0.00;0.00;0.62;;;;;17.40;2.40;;;;;;2244035;61;1059;-89
2021/12/30 10:41:24;188346.00;0.63;325.86;0.00;0.00;0.62;;;;;17.50;1.40;;;;;;2244978;61;1153;-90
2021/12/30 10:43:57;280796.00;0.94;484.91;0.00;0.00;0.62;;;;;17.40;3.20;;;;;;2248166;61;1043;-89
2021/12/30 10:46:26;179521.00;0.60;310.66;0.00;0.00;0.62;;;;;17.70;1.00;;;;;;2248067;61;1282;-89
2021/12/30 10:49:03;152415.00;0.51;263.97;0.00;0.00;0.62;;;;;17.60;1.80;;;;;;2249235;61;1920;-90
2021/12/30 10:51:39;172595.00;0.58;298.74;0.00;0.00;0.62;;;;;17.70;1.20;;;;;;2253425;61;1019;-89
2021/12/30 10:54:13;304829.00;1.02;526.22;0.00;0.00;0.62;;;;;17.70;1.80;;;;;;2254882;61;1010;-88
2021/12/30 10:56:42;191120.00;0.64;330.64;0.00;0.00;0.62;;;;;17.80;1.70;;;;;;2263230;61;1269;-91
2021/12/30 10:59:15;217822.00;0.73;376.60;0.00;0.00;0.62;;;;;18.00;1.10;;;;;;2263978;61;1017;-92
2021/12/30 11:01:45;120713.00;0.40;209.31;0.00;0.00;0.62;;;;;18.00;1.00;;;;;;2264077;61;1061;-91
2021/12/30 11:04:13;155346.00;0.52;269.02;0.00;0.00;0.62;;;;;18.20;1.00;;;;;;2264168;61;1051;-89
2021/12/30 11:06:41;171296.00;0.57;296.50;0.00;0.00;0.62;;;;;18.20;1.00;;;;;;2264122;61;1347;-89
2021/12/30 11:09:12;194322.00;0.65;336.15;0.00;0.00;0.62;;;;;18.00;1.00;;;;;;2264054;61;1919;-90
2021/12/30 11:11:43;425556.00;1.42;733.74;0.00;0.00;0.62;;;;;18.00;1.00;;;;;;2263034;61;995;-90
2021/12/30 11:14:14;641907.00;2.14;1106.64;7131.00;0.02;12.98;;;;;17.80;1.00;;;;;;2265326;61;1112;-88
2021/12/30 11:17:04;614091.00;2.05;1058.56;13027.00;0.04;23.19;;;;;17.70;1.00;;;;;;2273348;61;1300;-90
2021/12/30 11:19:35;211145.00;0.70;365.11;0.00;0.00;0.62;;;;;17.80;1.00;;;;;;2269630;61;1005;-90
2021/12/30 11:22:05;298197.00;0.99;514.82;522.00;0.00;1.52;;;;;17.80;1.60;;;;;;2276706;61;938;-90
2021/12/30 11:24:33;522266.00;1.74;900.17;6567.00;0.02;12.00;;;;;17.70;2.10;;;;;;2276785;61;1041;-90
2021/12/30 11:27:03;532113.00;1.77;917.13;0.00;0.00;0.62;;;;;17.60;1.60;;;;;;2269602;61;1273;-89
2021/12/30 11:29:34;311845.00;1.04;538.28;0.00;0.00;0.62;;;;;17.80;1.30;;;;;;2276717;61;1972;-89
2021/12/30 11:32:01;273183.00;0.91;471.82;0.00;0.00;0.62;;;;;17.90;1.00;;;;;;2268038;61;945;-91
2021/12/30 11:34:29;274348.00;0.91;473.82;0.00;0.00;0.62;;;;;18.00;1.00;;;;;;2261219;61;975;-86
2021/12/30 11:36:56;719012.00;2.40;1240.22;17927.00;0.06;31.68;;;;;18.10;1.30;;;;;;2262957;61;1204;-89
2021/12/30 11:39:25;468525.00;1.56;807.65;18092.00;0.06;31.97;;;;;18.40;1.00;;;;;;2264047;61;1038;-90
2021/12/30 11:41:58;430992.00;1.44;743.09;0.00;0.00;0.62;;;;;18.50;1.00;;;;;;2260200;61;1054;-89
2021/12/30 11:44:39;337414.00;1.12;582.23;0.00;0.00;0.62;;;;;18.30;1.00;;;;;;2259882;61;980;-89
2021/12/30 11:47:08;148572.00;0.50;257.35;0.00;0.00;0.62;;;;;18.20;1.20;;;;;;2259926;61;1396;-89
2021/12/30 11:49:53;345945.00;1.15;596.89;0.00;0.00;0.62;;;;;18.30;1.00;;;;;;2256940;61;2010;-89
2021/12/30 11:52:59;134044.00;0.45;232.30;0.00;0.00;0.62;;;;;18.30;1.10;;;;;;2259756;61;1067;-90
2021/12/30 11:55:52;202970.00;0.68;351.04;0.00;0.00;0.62;;;;;18.40;1.00;;;;;;2247984;61;992;-90
2021/12/30 11:58:48;217542.00;0.73;376.11;0.00;0.00;0.62;;;;;18.50;1.00;;;;;;2243762;61;1232;-88
2021/12/30 12:01:49;216206.00;0.72;373.82;0.00;0.00;0.62;;;;;18.70;1.00;;;;;;2243953;61;1051;-89
2021/12/30 12:04:25;111342.00;0.37;193.15;0.00;0.00;0.62;;;;;18.70;1.00;;;;;;2240031;62;1060;-88
2021/12/30 12:07:01;158454.00;0.53;274.38;0.00;0.00;0.62;;;;;19.10;1.00;;;;;;2243328;62;1343;-89
2021/12/30 12:09:43;153818.00;0.51;266.39;0.00;0.00;0.62;;;;;19.20;1.00;;;;;;2236611;62;1928;-89
2021/12/30 12:12:31;179862.00;0.60;311.25;0.00;0.00;0.62;;;;;19.10;1.00;;;;;;2239757;62;965;-88
2021/12/30 12:15:01;266299.00;0.89;459.98;0.00;0.00;0.62;;;;;19.10;1.00;;;;;;2239764;62;980;-92
2021/12/30 12:17:36;121270.00;0.40;210.27;0.00;0.00;0.62;;;;;19.30;1.00;;;;;;2237353;61;1361;-89
2021/12/30 12:20:18;109859.00;0.37;190.59;0.00;0.00;0.62;;;;;19.50;1.00;;;;;;2244511;62;1081;-89
2021/12/30 12:22:45;225258.00;0.75;389.39;0.00;0.00;0.62;;;;;19.30;1.00;;;;;;2249918;61;1088;-88
2021/12/30 12:25:15;170865.00;0.57;295.76;0.00;0.00;0.62;;;;;19.00;1.00;;;;;;2258260;61;1090;-90
2021/12/30 12:27:46;283191.00;0.94;489.02;25502.00;0.09;44.80;;;;;18.70;1.00;;;;;;2254762;61;1320;-88
2021/12/30 12:30:32;217806.00;0.73;376.57;0.00;0.00;0.62;;;;;18.80;1.00;;;;;;2251489;61;1941;-88
2021/12/30 12:33:22;147609.00;0.49;255.69;0.00;0.00;0.62;;;;;18.70;1.00;;;;;;2263649;61;1747;-88
2021/12/30 12:35:49;238881.00;0.80;412.83;16064.00;0.05;28.45;;;;;18.60;1.00;;;;;;2257600;61;1082;-88
2021/12/30 12:38:35;338015.00;1.13;583.26;0.00;0.00;0.62;;;;;18.80;1.00;;;;;;2260822;61;1464;-88
2021/12/30 12:41:03;222531.00;0.74;384.70;0.00;0.00;0.62;;;;;18.90;1.00;;;;;;2259508;61;1011;-89
2021/12/30 12:43:33;168789.00;0.56;292.18;0.00;0.00;0.62;;;;;18.60;1.00;;;;;;2250402;61;1149;-89
2021/12/30 12:46:03;237024.00;0.79;409.63;0.00;0.00;0.62;;;;;18.60;1.00;;;;;;2258585;61;1003;-90
2021/12/30 12:48:38;234501.00;0.78;405.29;0.00;0.00;0.62;;;;;18.80;1.00;;;;;;2265027;61;2009;-90
2021/12/30 12:51:08;142289.00;0.47;246.52;0.00;0.00;0.62;;;;;19.10;1.00;;;;;;2268571;61;919;-90
2021/12/30 12:53:48;125019.00;0.42;216.74;0.00;0.00;0.62;;;;;19.40;1.00;;;;;;2264982;61;974;-90
2021/12/30 12:56:21;158738.00;0.53;274.86;0.00;0.00;0.62;;;;;19.40;1.00;;;;;;2268364;61;1269;-90
2021/12/30 12:58:50;123237.00;0.41;213.67;0.00;0.00;0.62;;;;;19.10;1.00;;;;;;2271748;61;1079;-90
2021/12/30 13:01:20;178773.00;0.60;309.38;0.00;0.00;0.62;;;;;19.10;1.00;;;;;;2269855;61;998;-88
2021/12/30 13:03:49;121034.00;0.40;209.87;0.00;0.00;0.62;;;;;18.80;1.00;;;;;;2277197;61;980;-91
2021/12/30 13:06:19;251742.00;0.84;434.95;0.00;0.00;0.62;;;;;18.80;1.00;;;;;;2269594;61;1238;-90
2021/12/30 13:08:52;201685.00;0.67;348.82;0.00;0.00;0.62;;;;;19.00;1.00;;;;;;2268416;61;2008;-90
2021/12/30 13:11:30;136559.00;0.46;236.64;0.00;0.00;0.62;;;;;19.10;1.00;;;;;;2264219;61;994;-89
2021/12/30 13:13:59;207409.00;0.69;358.68;0.00;0.00;0.62;;;;;19.20;1.00;;;;;;2264337;61;1070;-88
2021/12/30 13:16:29;162104.00;0.54;280.66;0.00;0.00;0.62;;;;;19.00;1.00;;;;;;2264253;61;1331;-89
2021/12/30 13:19:05;134812.00;0.45;233.63;0.00;0.00;0.62;;;;;18.90;1.00;;;;;;2254524;61;1107;-89
2021/12/30 13:21:57;217670.00;0.73;376.33;0.00;0.00;0.62;;;;;19.00;1.00;;;;;;2260943;61;998;-90
2021/12/30 13:24:39;203259.00;0.68;351.53;0.00;0.00;0.62;;;;;19.30;1.00;;;;;;2260978;61;1022;-90
2021/12/30 13:27:19;131315.00;0.44;227.60;0.00;0.00;0.62;;;;;19.50;1.00;;;;;;2261913;61;1200;-89
2021/12/30 13:29:49;360667.00;1.20;622.20;92417.00;0.31;160.48;;;;;19.30;1.00;;;;;;2261665;61;1924;-88
2021/12/30 13:32:18;152207.00;0.51;263.61;0.00;0.00;0.62;;;;;19.10;1.00;;;;;;2264363;61;1034;-90
2021/12/30 13:34:58;112609.00;0.38;195.33;0.00;0.00;0.62;;;;;19.10;1.00;;;;;;2264341;61;1078;-89
2021/12/30 13:37:28;113700.00;0.38;197.21;0.00;0.00;0.62;;;;;19.00;1.00;;;;;;2260853;61;1323;-89
2021/12/30 13:39:56;242372.00;0.81;418.83;0.00;0.00;0.62;;;;;19.00;1.00;;;;;;2260993;61;1013;-89
2021/12/30 13:42:26;135189.00;0.45;234.28;0.00;0.00;0.62;;;;;18.90;1.00;;;;;;2264312;61;1051;-90
2021/12/30 13:44:55;104848.00;0.35;181.94;0.00;0.00;0.62;;;;;18.90;1.00;;;;;;2264300;61;1009;-89
2021/12/30 13:47:26;120614.00;0.40;209.14;0.00;0.00;0.62;;;;;18.80;1.00;;;;;;2266601;61;1227;-90
2021/12/30 15:26:05;1189556.00;3.97;2071.35;59479.00;0.20;103.58;;;;;18.40;1.00;;;;;;2271011;61;935;-87
2021/12/30 16:00:36;306066.00;1.02;528.35;0.00;0.00;0.62;;;;;18.20;1.00;;;;;;2439818;55;3731;31
2021/12/30 16:30:24;530784.00;1.77;914.84;97757.00;0.33;169.70;;;;;17.90;1.00;;;;;;2270468;61;1875;-86
2021/12/30 16:47:41;1095096.00;3.65;1901.66;83471.00;0.28;145.03;;;;;18.00;1.00;;;;;;2477791;40;3563;31
2021/12/30 17:09:52;1350998.00;4.50;2365.75;55764.00;0.19;97.15;;;;;17.80;2.80;;;;;;2405604;55;3800;31
2021/12/30 17:46:54;77150.00;0.26;134.11;0.00;0.00;0.62;;;;;17.90;2.70;;;;;;2271071;61;1158;-85
2021/12/30 17:54:34;255359.00;0.85;441.17;27230.00;0.09;47.79;;;;;17.60;4.00;;;;;;2387185;55;3794;31
2021/12/30 18:58:38;481015.00;1.60;829.14;0.00;0.00;0.62;;;;;17.40;4.40;;;;;;2286021;61;1339;-87
2021/12/30 19:33:24;390030.00;1.30;672.67;2060.00;0.01;4.19;;;;;17.40;4.00;;;;;;2286841;60;1903;-88
2021/12/30 19:35:52;1256281.00;4.19;2192.31;37157.00;0.12;64.97;;;;;17.50;2.60;;;;;;2284284;60;938;-86
2021/12/30 19:53:12;498552.00;1.66;859.33;0.00;0.00;0.62;;;;;17.60;2.20;;;;;;2281211;61;1964;-84
2021/12/30 19:55:40;102395.00;0.34;177.71;0.00;0.00;0.62;;;;;17.60;1.50;;;;;;2279678;61;1156;-84
2021/12/30 19:58:07;220111.00;0.73;380.53;0.00;0.00;0.62;;;;;17.60;1.20;;;;;;2279588;61;1167;-82
2021/12/30 20:00:38;212758.00;0.71;367.88;0.00;0.00;0.62;;;;;17.60;1.70;;;;;;2279731;61;1088;-83
2021/12/30 20:03:06;301585.00;1.01;520.64;0.00;0.00;0.62;;;;;17.40;1.40;;;;;;2275353;61;1306;-82
2021/12/30 20:05:35;175893.00;0.59;304.42;0.00;0.00;0.62;;;;;17.40;1.10;;;;;;2275652;61;1170;-84
2021/12/30 20:08:03;122645.00;0.41;212.64;0.00;0.00;0.62;;;;;17.40;1.50;;;;;;2276983;61;1282;-88
2021/12/30 20:10:31;350704.00;1.17;605.07;0.00;0.00;0.62;;;;;17.40;1.50;;;;;;2276879;61;1065;-91
2021/12/30 20:12:59;234065.00;0.78;404.54;0.00;0.00;0.62;;;;;17.20;1.90;;;;;;2276809;61;2010;-87
2021/12/30 20:15:27;304119.00;1.01;525.00;0.00;0.00;0.62;;;;;17.40;1.50;;;;;;2275169;61;1007;-83
2021/12/30 20:17:55;184897.00;0.62;319.92;0.00;0.00;0.62;;;;;17.50;1.70;;;;;;2274457;61;1787;-83
2021/12/30 20:20:24;190749.00;0.64;330.00;0.00;0.00;0.62;;;;;17.40;1.50;;;;;;2274578;61;1053;-83
2021/12/30 20:22:51;323918.00;1.08;559.03;0.00;0.00;0.62;;;;;17.50;1.40;;;;;;2274854;61;1447;-83
2021/12/30 20:25:20;189427.00;0.63;327.72;0.00;0.00;0.62;;;;;17.40;1.70;;;;;;2274931;61;1100;-84
2021/12/30 20:27:49;360589.00;1.20;622.06;30550.00;0.10;53.54;;;;;17.40;1.20;;;;;;2274899;61;1085;-83
2021/12/30 20:30:18;268375.00;0.89;463.55;0.00;0.00;0.62;;;;;17.40;1.00;;;;;;2275575;61;1094;-84
2021/12/30 20:32:47;278142.00;0.93;480.34;0.00;0.00;0.62;;;;;17.70;1.00;;;;;;2274989;61;1919;-83
2021/12/30 20:35:15;751770.00;2.51;1297.14;125479.00;0.42;217.53;;;;;17.70;1.00;;;;;;2274040;61;1065;-83
2021/12/30 20:37:43;272474.00;0.91;470.60;0.00;0.00;0.62;;;;;17.70;1.00;;;;;;2273907;61;1671;-83
2021/12/30 20:40:12;372272.00;1.24;642.14;38190.00;0.13;66.76;;;;;17.70;1.00;;;;;;2265719;61;998;-84
2021/12/30 20:42:40;151700.00;0.51;262.74;0.00;0.00;0.62;;;;;17.70;1.00;;;;;;2265504;61;1477;-83
2021/12/30 20:45:10;97714.00;0.33;169.63;0.00;0.00;0.62;;;;;17.90;1.00;;;;;;2266144;61;1208;-83
2021/12/30 20:47:38;217447.00;0.72;375.95;0.00;0.00;0.62;;;;;17.80;1.00;;;;;;2266218;61;1209;-83
2021/12/30 20:50:06;260165.00;0.87;449.43;0.00;0.00;0.62;;;;;17.80;1.00;;;;;;2265989;61;1160;-83
2021/12/30 20:52:33;260216.00;0.87;449.52;0.00;0.00;0.62;;;;;17.90;1.00;;;;;;2267153;61;2028;-83
2021/12/30 20:55:00;227712.00;0.76;393.61;0.00;0.00;0.62;;;;;17.90;1.00;;;;;;2270727;61;1203;-83
2021/12/30 20:57:27;259565.00;0.87;448.40;30894.00;0.10;54.13;;;;;17.70;1.00;;;;;;2271695;61;1284;-83
2021/12/30 20:59:54;322766.00;1.08;557.05;0.00;0.00;0.62;;;;;17.60;1.00;;;;;;2276134;61;1076;-83
2021/12/30 21:02:22;303325.00;1.01;523.64;0.00;0.00;0.62;;;;;17.60;1.00;;;;;;2275630;61;1407;-84
2021/12/30 21:04:49;233457.00;0.78;403.50;0.00;0.00;0.62;;;;;17.60;1.00;;;;;;2275800;61;1060;-83
2021/12/30 21:07:17;238554.00;0.80;412.26;0.00;0.00;0.62;;;;;17.60;1.00;;;;;;2275478;61;1121;-83
2021/12/30 21:09:44;187341.00;0.62;324.13;0.00;0.00;0.62;;;;;17.50;1.00;;;;;;2275419;61;1141;-83
2021/12/30 21:12:11;270806.00;0.90;467.73;0.00;0.00;0.62;;;;;17.60;1.00;;;;;;2275148;61;1261;-84
2021/12/30 21:14:38;196998.00;0.66;340.76;0.00;0.00;0.62;;;;;17.60;1.00;;;;;;2274588;61;1943;-83
2021/12/30 21:17:05;169031.00;0.56;292.60;0.00;0.00;0.62;;;;;17.50;1.70;;;;;;2274436;61;1211;-85
2021/12/30 21:19:34;218655.00;0.73;378.03;0.00;0.00;0.62;;;;;17.60;1.00;;;;;;2274318;61;1033;-84
2021/12/30 21:22:02;109167.00;0.36;189.39;0.00;0.00;0.62;;;;;17.60;1.00;;;;;;2274466;61;1392;-85
2021/12/30 21:24:29;316545.00;1.06;546.36;0.00;0.00;0.62;;;;;17.70;1.00;;;;;;2274680;61;1235;-84
2021/12/30 21:26:56;178537.00;0.60;308.97;0.00;0.00;0.62;;;;;17.70;1.00;;;;;;2274138;61;1179;-84
2021/12/30 21:29:24;245742.00;0.82;424.63;21178.00;0.07;37.31;;;;;17.80;1.00;;;;;;2274680;61;1753;-85
2021/12/30 21:31:51;293854.00;0.98;507.35;0.00;0.00;0.62;;;;;17.80;1.00;;;;;;2274303;61;1356;-84
2021/12/30 21:34:18;271236.00;0.90;468.47;0.00;0.00;0.62;;;;;17.90;1.00;;;;;;2274199;61;2006;-84
2021/12/30 21:36:47;127970.00;0.43;221.83;0.00;0.00;0.62;;;;;17.90;1.00;;;;;;2274151;61;881;-85
2021/12/30 21:39:14;306630.00;1.02;529.32;0.00;0.00;0.62;;;;;17.90;1.00;;;;;;2274855;61;1337;-84
2021/12/30 21:41:41;336772.00;1.12;581.13;0.00;0.00;0.62;;;;;17.80;1.00;;;;;;2274468;61;1356;-84
2021/12/30 21:44:08;207751.00;0.69;359.26;0.00;0.00;0.62;;;;;17.80;1.00;;;;;;2274802;61;1180;-84
2021/12/30 21:46:36;313951.00;1.05;541.90;0.00;0.00;0.62;;;;;17.80;1.00;;;;;;2275429;61;1734;-84
2021/12/30 21:49:03;266965.00;0.89;461.13;0.00;0.00;0.62;;;;;17.80;1.00;;;;;;2275034;61;1173;-84